Time;durP1;ratioP1;P1;durP2;ratioP2;P2;SDS_P1;SDS_P2;PMS_P1;PMS_P2;Temp;Humidity;BMP_temperature;BMP_pressure;BME280_temperature;BME280_humidity;BME280_pressure;Samples;Min_cycle;Max_cycle;Signal;HPM_P1;HPM_P2
2021/07/18 00:01:05;;;;;;;13.98;9.48;;;20.80;99.90;;;;;;4955244;29;20106;-85
2021/07/18 00:03:31;;;;;;;14.18;10.02;;;20.90;99.90;;;;;;4955679;29;20024;-85
2021/07/18 00:05:57;;;;;;;16.27;10.60;;;20.90;99.90;;;;;;4955670;29;20031;-85
2021/07/18 00:08:22;;;;;;;14.95;10.10;;;21.00;99.90;;;;;;4949257;28;20039;-85
2021/07/18 00:10:49;;;;;;;14.95;10.65;;;21.00;99.90;;;;;;4946786;29;20444;-85
2021/07/18 00:13:15;;;;;;;19.95;10.88;;;20.90;99.90;;;;;;4951533;29;20020;-85
2021/07/18 00:15:41;;;;;;;21.33;10.75;;;20.80;99.90;;;;;;4945169;29;20066;-85
2021/07/18 00:18:08;;;;;;;18.58;10.65;;;20.80;99.90;;;;;;4955002;29;20464;-85
2021/07/18 00:20:34;;;;;;;20.30;10.88;;;20.80;99.90;;;;;;4955104;29;20023;-85
2021/07/18 00:23:00;;;;;;;17.50;11.30;;;20.80;99.90;;;;;;4937477;29;20396;-85
2021/07/18 00:25:26;;;;;;;15.63;10.90;;;20.80;99.90;;;;;;4954911;29;20019;-85
2021/07/18 00:27:51;;;;;;;17.35;11.00;;;20.70;99.90;;;;;;4954745;29;20444;-85
2021/07/18 00:30:17;;;;;;;20.30;12.02;;;20.60;99.90;;;;;;4954429;29;20042;-85
2021/07/18 00:32:43;;;;;;;18.67;12.18;;;20.70;99.90;;;;;;4954777;29;20058;-85
2021/07/18 00:35:09;;;;;;;13.77;10.15;;;20.60;99.90;;;;;;4954564;29;20020;-85
2021/07/18 00:37:36;;;;;;;15.35;10.18;;;20.60;99.90;;;;;;4954372;29;20030;-85
2021/07/18 00:40:06;;;;;;;19.33;11.10;;;20.60;99.90;;;;;;4954608;29;20201;-84
2021/07/18 00:42:32;;;;;;;23.88;11.77;;;20.60;99.90;;;;;;4954298;29;20024;-85
2021/07/18 00:44:58;;;;;;;17.27;11.73;;;20.50;99.90;;;;;;4954449;29;20074;-85
2021/07/18 00:47:25;;;;;;;20.70;11.70;;;20.50;99.90;;;;;;4954364;29;20019;-85
2021/07/18 00:49:51;;;;;;;17.75;11.25;;;20.50;99.90;;;;;;4954409;29;20023;-85
2021/07/18 00:52:17;;;;;;;17.35;11.90;;;20.50;99.90;;;;;;4954092;29;20038;-85
2021/07/18 00:54:42;;;;;;;14.85;11.20;;;20.50;99.90;;;;;;4954136;29;20028;-85
2021/07/18 00:57:08;;;;;;;19.83;11.57;;;20.50;99.90;;;;;;4954263;29;20033;-85
2021/07/18 00:59:37;;;;;;;18.65;12.00;;;20.40;99.90;;;;;;4952769;29;20473;-85
2021/07/18 01:02:03;;;;;;;20.88;12.35;;;20.40;99.90;;;;;;4954167;29;20030;-85
2021/07/18 01:04:30;;;;;;;16.85;11.90;;;20.40;99.90;;;;;;4953997;29;20038;-85
2021/07/18 01:06:56;;;;;;;19.63;12.82;;;20.40;99.90;;;;;;4954059;29;20024;-85
2021/07/18 01:09:23;;;;;;;18.05;12.43;;;20.20;99.90;;;;;;4953687;29;20031;-85
2021/07/18 01:11:48;;;;;;;16.85;12.38;;;20.20;99.90;;;;;;4953830;29;20028;-84
2021/07/18 01:14:14;;;;;;;21.92;13.15;;;20.20;99.90;;;;;;4953768;29;20034;-85
2021/07/18 01:16:40;;;;;;;20.80;12.48;;;20.20;99.90;;;;;;4953962;29;20038;-85
2021/07/18 01:19:06;;;;;;;21.80;12.65;;;20.20;99.90;;;;;;4952801;28;20245;-85
2021/07/18 01:21:34;;;;;;;20.17;13.00;;;20.20;99.90;;;;;;4953444;29;20047;-85
2021/07/18 01:24:00;;;;;;;20.35;12.32;;;20.10;99.90;;;;;;4953828;29;20023;-85
2021/07/18 01:26:26;;;;;;;20.23;12.00;;;20.10;99.90;;;;;;4953379;29;20135;-84
2021/07/18 01:28:52;;;;;;;18.70;12.70;;;20.10;99.90;;;;;;4953464;29;20486;-85
2021/07/18 01:31:18;;;;;;;20.33;12.68;;;20.00;99.90;;;;;;4953307;29;20050;-84
2021/07/18 01:33:44;;;;;;;22.20;12.27;;;20.00;99.90;;;;;;4953124;29;20023;-85
2021/07/18 01:36:10;;;;;;;17.15;12.18;;;20.00;99.90;;;;;;4936129;29;20028;-85
2021/07/18 01:38:36;;;;;;;22.13;12.15;;;20.00;99.90;;;;;;4953248;29;20120;-85
2021/07/18 01:41:01;;;;;;;21.90;13.45;;;20.00;99.90;;;;;;4953239;29;20480;-85
2021/07/18 01:43:27;;;;;;;20.95;12.32;;;20.00;99.90;;;;;;4953278;29;20067;-84
2021/07/18 01:45:53;;;;;;;20.15;12.82;;;20.00;99.90;;;;;;4953265;29;20097;-85
2021/07/18 01:48:18;;;;;;;17.52;11.73;;;19.90;99.90;;;;;;4953391;29;20275;-85
2021/07/18 01:50:44;;;;;;;17.85;12.85;;;20.00;99.90;;;;;;4953134;29;20031;-85
2021/07/18 01:53:10;;;;;;;20.02;13.10;;;20.00;99.90;;;;;;4953356;29;20080;-85
2021/07/18 01:55:36;;;;;;;19.23;13.25;;;19.90;99.90;;;;;;4952887;29;20567;-85
2021/07/18 01:58:02;;;;;;;17.63;12.75;;;19.90;99.90;;;;;;4952998;29;20054;-85
2021/07/18 02:00:28;;;;;;;20.45;13.40;;;19.90;99.90;;;;;;4935844;29;20050;-84
2021/07/18 02:02:54;;;;;;;17.35;13.18;;;19.80;99.90;;;;;;4953158;29;20105;-85
2021/07/18 02:05:21;;;;;;;18.55;13.02;;;19.80;99.90;;;;;;4942383;29;20485;-85
2021/07/18 02:07:49;;;;;;;18.73;13.57;;;19.70;99.90;;;;;;4950474;29;20428;-85
2021/07/18 02:10:17;;;;;;;17.50;13.73;;;19.70;99.90;;;;;;4952890;29;20020;-85
2021/07/18 02:12:44;;;;;;;19.33;13.52;;;19.70;99.90;;;;;;4952754;29;20035;-85
2021/07/18 02:15:12;;;;;;;20.45;13.45;;;19.60;99.90;;;;;;4951774;29;20042;-85
2021/07/18 02:17:38;;;;;;;18.90;13.38;;;19.60;99.90;;;;;;4952684;29;20504;-85
2021/07/18 02:20:09;;;;;;;21.05;13.35;;;19.50;99.90;;;;;;4951602;29;20058;-85
2021/07/18 02:22:50;;;;;;;20.98;14.40;;;19.60;99.90;;;;;;4952649;29;20058;-84
2021/07/18 02:25:20;;;;;;;20.35;13.85;;;19.50;99.90;;;;;;4940794;29;20027;-85
2021/07/18 02:27:46;;;;;;;21.52;12.90;;;19.50;99.90;;;;;;4952571;29;20035;-85
2021/07/18 02:30:16;;;;;;;21.00;14.60;;;19.50;99.90;;;;;;4935055;29;20051;-85
2021/07/18 02:32:42;;;;;;;22.27;14.55;;;19.50;99.90;;;;;;4952638;29;20023;-84
2021/07/18 02:35:09;;;;;;;20.48;14.23;;;19.50;99.90;;;;;;4952692;29;20023;-85
2021/07/18 02:37:35;;;;;;;21.88;14.32;;;19.50;99.90;;;;;;4945979;29;20034;-85
2021/07/18 02:40:02;;;;;;;18.75;13.02;;;19.50;99.90;;;;;;4945703;29;20019;-84
2021/07/18 02:42:28;;;;;;;19.55;14.60;;;19.40;99.90;;;;;;4935352;29;20025;-85
2021/07/18 02:44:54;;;;;;;19.75;14.90;;;19.30;99.90;;;;;;4952678;29;20038;-85
2021/07/18 02:47:20;;;;;;;18.45;13.98;;;19.30;99.90;;;;;;4952349;29;20027;-85
2021/07/18 02:49:45;;;;;;;18.75;13.65;;;19.20;99.90;;;;;;4935336;29;20030;-84
2021/07/18 02:52:12;;;;;;;18.75;14.27;;;19.20;99.90;;;;;;4952233;29;20095;-85
2021/07/18 02:54:37;;;;;;;16.83;12.88;;;19.20;99.90;;;;;;4952261;29;20054;-85
2021/07/18 02:57:03;;;;;;;20.92;14.10;;;19.20;99.90;;;;;;4952285;29;20059;-85
2021/07/18 02:59:29;;;;;;;23.52;14.50;;;19.20;99.90;;;;;;4934989;29;20015;-84
2021/07/18 03:01:59;;;;;;;20.48;14.45;;;19.20;99.90;;;;;;4935204;29;20031;-84
2021/07/18 03:04:25;;;;;;;22.38;16.58;;;19.20;99.90;;;;;;4935112;29;20645;-85
2021/07/18 03:06:53;;;;;;;23.33;14.80;;;19.10;99.90;;;;;;4952140;29;20035;-85
2021/07/18 03:09:23;;;;;;;20.40;14.80;;;19.10;99.90;;;;;;4952321;29;20047;-85
2021/07/18 03:11:50;;;;;;;18.77;13.48;;;19.10;99.90;;;;;;4952038;29;20037;-85
2021/07/18 03:14:16;;;;;;;21.65;14.73;;;19.10;99.90;;;;;;4952066;29;20016;-85
2021/07/18 03:16:41;;;;;;;19.30;14.73;;;19.10;99.90;;;;;;4952295;29;20024;-85
2021/07/18 03:19:07;;;;;;;25.08;15.32;;;19.10;99.90;;;;;;4952027;29;20095;-85
2021/07/18 03:21:34;;;;;;;19.05;14.65;;;19.10;99.90;;;;;;4952170;29;20484;-84
2021/07/18 03:24:03;;;;;;;25.08;15.25;;;19.10;99.90;;;;;;4952273;29;20437;-85
2021/07/18 03:26:29;;;;;;;18.45;14.20;;;19.00;99.90;;;;;;4952136;29;20098;-84
2021/07/18 03:28:54;;;;;;;18.13;14.13;;;19.00;99.90;;;;;;4951898;29;20515;-84
2021/07/18 03:31:20;;;;;;;19.50;13.82;;;19.00;99.90;;;;;;4952214;29;20028;-85
2021/07/18 03:33:46;;;;;;;21.83;14.10;;;19.00;99.90;;;;;;4952265;29;20061;-85
2021/07/18 03:36:12;;;;;;;19.48;14.05;;;19.00;99.90;;;;;;4952112;29;20039;-84
2021/07/18 03:38:37;;;;;;;21.45;14.30;;;19.00;99.90;;;;;;4951881;29;20440;-85
2021/07/18 03:41:03;;;;;;;21.42;15.15;;;19.00;99.90;;;;;;4952315;28;20030;-85
2021/07/18 03:43:29;;;;;;;23.38;14.93;;;19.00;99.90;;;;;;4954401;29;20495;-84
2021/07/18 03:45:55;;;;;;;18.90;14.50;;;19.00;99.90;;;;;;4955702;29;20419;-85
2021/07/18 03:48:20;;;;;;;21.60;14.68;;;18.90;99.90;;;;;;4955527;29;20023;-84
2021/07/18 03:50:48;;;;;;;19.92;14.35;;;18.90;99.90;;;;;;4954244;29;20036;-84
2021/07/18 03:53:15;;;;;;;20.30;15.05;;;18.90;99.90;;;;;;4938317;29;20023;-85
2021/07/18 03:55:40;;;;;;;20.58;15.18;;;18.90;99.90;;;;;;4955651;29;20086;-85
2021/07/18 03:58:06;;;;;;;18.73;14.60;;;18.90;99.90;;;;;;4954277;29;20023;-84
2021/07/18 04:00:32;;;;;;;19.77;14.73;;;18.80;99.90;;;;;;4955685;29;20051;-84
2021/07/18 04:02:57;;;;;;;22.73;15.50;;;18.80;99.90;;;;;;4955095;29;20058;-85
2021/07/18 04:05:23;;;;;;;20.23;15.10;;;18.80;99.90;;;;;;4955277;29;20029;-85
2021/07/18 04:07:49;;;;;;;22.33;15.25;;;18.80;99.90;;;;;;4953614;29;20078;-85
2021/07/18 04:10:14;;;;;;;20.83;15.07;;;18.70;99.90;;;;;;4955382;29;20031;-84
2021/07/18 04:12:40;;;;;;;20.65;16.20;;;18.70;99.90;;;;;;4955141;29;20035;-84
2021/07/18 04:15:07;;;;;;;21.42;15.27;;;18.70;99.90;;;;;;4948281;29;20032;-85
2021/07/18 04:17:33;;;;;;;18.95;15.27;;;18.70;99.90;;;;;;4949278;29;20412;-84
2021/07/18 04:19:59;;;;;;;22.48;15.32;;;18.70;99.90;;;;;;4955274;29;20023;-85
2021/07/18 04:22:24;;;;;;;19.25;14.68;;;18.70;99.90;;;;;;4955016;29;20178;-84
2021/07/18 04:24:50;;;;;;;20.45;15.30;;;18.70;99.90;;;;;;4954941;29;20514;-84
2021/07/18 04:27:16;;;;;;;22.35;15.73;;;18.70;99.90;;;;;;4954645;29;20047;-84
2021/07/18 04:29:41;;;;;;;22.70;15.70;;;18.70;99.90;;;;;;4953569;29;20098;-85
2021/07/18 04:32:08;;;;;;;23.55;15.93;;;18.70;99.90;;;;;;4937658;29;20039;-84
2021/07/18 04:34:34;;;;;;;21.88;17.25;;;18.70;99.90;;;;;;4955082;29;20024;-85
2021/07/18 04:37:00;;;;;;;23.83;16.33;;;18.70;99.90;;;;;;4954997;29;20023;-84
2021/07/18 04:39:29;;;;;;;19.90;15.10;;;18.70;99.90;;;;;;4954684;29;20027;-85
2021/07/18 04:41:54;;;;;;;19.65;15.68;;;18.70;99.90;;;;;;4954297;29;20023;-85
2021/07/18 04:44:20;;;;;;;21.33;16.48;;;18.70;99.90;;;;;;4954497;29;20034;-85
2021/07/18 04:46:46;;;;;;;21.13;15.98;;;18.70;99.90;;;;;;4954733;29;20023;-85
2021/07/18 04:49:11;;;;;;;24.05;15.20;;;18.60;99.90;;;;;;4954587;29;20022;-84
2021/07/18 04:51:37;;;;;;;24.33;16.00;;;18.70;99.90;;;;;;4954274;29;20098;-84
2021/07/18 04:54:03;;;;;;;19.45;15.70;;;18.60;99.90;;;;;;4954176;28;20107;-85
2021/07/18 04:56:28;;;;;;;24.08;16.88;;;18.70;99.90;;;;;;4954590;29;20480;-84
2021/07/18 04:58:54;;;;;;;21.88;16.27;;;18.60;99.90;;;;;;4952557;29;20097;-85
2021/07/18 05:01:20;;;;;;;26.63;16.33;;;18.70;99.90;;;;;;4954371;29;20015;-85
2021/07/18 05:03:45;;;;;;;20.92;15.93;;;18.80;99.90;;;;;;4937021;29;20054;-83
2021/07/18 05:06:11;;;;;;;26.23;16.45;;;18.70;99.90;;;;;;4936809;29;20026;-83
2021/07/18 05:08:37;;;;;;;21.42;15.85;;;18.60;99.90;;;;;;4954290;29;20038;-83
2021/07/18 05:11:03;;;;;;;19.52;16.40;;;18.70;99.90;;;;;;4954032;29;20023;-83
2021/07/18 05:13:31;;;;;;;24.45;16.35;;;18.70;99.90;;;;;;4954176;29;20050;-84
2021/07/18 05:15:57;;;;;;;21.70;15.35;;;18.60;99.90;;;;;;4954119;29;20023;-83
2021/07/18 05:18:22;;;;;;;23.40;16.25;;;18.60;99.90;;;;;;4953767;29;20385;-83
2021/07/18 05:20:49;;;;;;;25.23;17.27;;;18.60;99.90;;;;;;4953935;29;20047;-83
2021/07/18 05:23:15;;;;;;;23.88;16.60;;;18.60;99.90;;;;;;4953555;29;20019;-83
2021/07/18 05:25:41;;;;;;;22.15;15.98;;;18.70;99.90;;;;;;4953956;29;20129;-83
2021/07/18 05:28:07;;;;;;;19.80;16.15;;;18.70;99.90;;;;;;4936442;29;20023;-83
2021/07/18 05:30:32;;;;;;;24.23;16.30;;;18.80;99.90;;;;;;4952067;29;20419;-83
2021/07/18 05:32:58;;;;;;;23.17;15.48;;;18.80;99.90;;;;;;4953708;29;20107;-83
2021/07/18 05:35:24;;;;;;;20.25;16.40;;;18.80;99.90;;;;;;4953583;29;20410;-83
2021/07/18 05:37:51;;;;;;;25.35;15.80;;;18.90;99.90;;;;;;4953479;29;20023;-83
2021/07/18 05:40:18;;;;;;;23.58;16.55;;;19.10;99.90;;;;;;4953504;29;20027;-83
2021/07/18 05:42:44;;;;;;;24.08;15.10;;;19.00;99.90;;;;;;4953633;29;20026;-83
2021/07/18 05:45:11;;;;;;;23.48;15.82;;;19.10;99.90;;;;;;4936297;29;20035;-83
2021/07/18 05:47:38;;;;;;;18.13;14.30;;;19.10;99.90;;;;;;4953410;29;20493;-83
2021/07/18 05:50:05;;;;;;;21.98;15.65;;;19.20;99.90;;;;;;4953495;29;20444;-83
2021/07/18 05:52:31;;;;;;;22.23;15.48;;;19.20;99.90;;;;;;4953128;29;20031;-83
2021/07/18 05:54:57;;;;;;;24.23;16.67;;;19.30;99.90;;;;;;4954496;29;20078;-83
2021/07/18 05:57:23;;;;;;;23.63;15.85;;;19.30;99.90;;;;;;4954349;29;20508;-83
2021/07/18 05:59:49;;;;;;;26.73;16.52;;;19.30;99.90;;;;;;4954873;29;20561;-83
2021/07/18 06:02:15;;;;;;;21.90;15.70;;;19.40;99.90;;;;;;4955565;29;20037;-83
2021/07/18 06:04:42;;;;;;;21.67;16.13;;;19.40;99.90;;;;;;4957051;28;20042;-83
2021/07/18 06:07:07;;;;;;;25.05;15.15;;;19.30;99.90;;;;;;4972622;29;20023;-83
2021/07/18 06:09:33;;;;;;;19.88;15.65;;;19.40;99.90;;;;;;4972773;29;20034;-83
2021/07/18 06:11:59;;;;;;;22.40;15.68;;;19.40;99.90;;;;;;4967313;29;20043;-84
2021/07/18 06:14:25;;;;;;;22.50;15.65;;;19.50;99.90;;;;;;4972808;29;20031;-86
2021/07/18 06:16:51;;;;;;;20.25;15.07;;;19.50;99.90;;;;;;4974083;29;20027;-86
2021/07/18 06:19:16;;;;;;;21.67;16.42;;;19.50;99.90;;;;;;4974082;29;20038;-85
2021/07/18 06:21:42;;;;;;;26.45;16.58;;;19.50;99.90;;;;;;4971661;29;20019;-85
2021/07/18 06:24:08;;;;;;;20.38;15.93;;;19.50;99.90;;;;;;4970123;29;20015;-92
2021/07/18 06:26:34;;;;;;;25.08;15.77;;;19.50;99.90;;;;;;4971929;29;20071;-84
2021/07/18 06:29:02;;;;;;;23.25;15.18;;;19.60;99.90;;;;;;4972157;29;20022;-85
2021/07/18 06:31:29;;;;;;;22.58;15.77;;;19.70;99.90;;;;;;4953259;29;20032;-84
2021/07/18 06:33:54;;;;;;;23.55;15.52;;;19.80;99.90;;;;;;4952666;29;20392;-83
2021/07/18 06:36:20;;;;;;;25.40;15.82;;;19.90;99.90;;;;;;4953687;29;20037;-84
2021/07/18 06:38:46;;;;;;;24.60;15.98;;;20.00;99.90;;;;;;4953276;29;20134;-84
2021/07/18 06:41:12;;;;;;;24.63;13.50;;;20.00;99.90;;;;;;4950863;29;20106;-84
2021/07/18 06:43:38;;;;;;;20.85;14.48;;;20.10;99.90;;;;;;4936227;29;20575;-93
2021/07/18 06:46:04;;;;;;;21.48;14.38;;;20.20;99.90;;;;;;4953891;29;20027;-86
2021/07/18 06:48:30;;;;;;;24.75;15.40;;;20.30;99.90;;;;;;4935929;29;20456;-84
2021/07/18 06:50:56;;;;;;;22.77;15.75;;;20.30;99.90;;;;;;4952413;29;20051;-91
2021/07/18 06:53:23;;;;;;;20.23;15.02;;;20.40;99.90;;;;;;4953188;29;20047;-84
2021/07/18 06:55:52;;;;;;;22.52;14.60;;;20.40;99.90;;;;;;4953415;29;20235;-84
2021/07/18 06:58:18;;;;;;;20.90;14.57;;;20.50;99.90;;;;;;4952948;29;20031;-92
2021/07/18 07:00:43;;;;;;;19.63;14.65;;;20.60;99.90;;;;;;4953743;29;20022;-84
2021/07/18 07:03:09;;;;;;;21.73;14.77;;;20.70;99.90;;;;;;4952003;29;20445;-84
2021/07/18 07:05:38;;;;;;;19.02;14.02;;;20.70;99.90;;;;;;4951843;29;20026;-84
2021/07/18 07:08:04;;;;;;;20.20;13.95;;;20.80;99.90;;;;;;4950351;29;20023;-84
2021/07/18 07:10:29;;;;;;;21.08;13.75;;;20.90;99.90;;;;;;4952011;29;20034;-84
2021/07/18 07:12:55;;;;;;;18.85;13.57;;;21.00;99.90;;;;;;4938916;29;20142;-86
2021/07/18 07:15:21;;;;;;;18.33;13.88;;;21.00;99.90;;;;;;4949295;29;20506;-84
2021/07/18 07:17:47;;;;;;;20.35;13.38;;;21.10;99.90;;;;;;4954001;28;20043;-84
2021/07/18 07:20:15;;;;;;;20.38;13.40;;;21.20;99.90;;;;;;4955417;29;20015;-84
2021/07/18 07:22:41;;;;;;;19.70;12.75;;;21.30;99.90;;;;;;4932965;29;20035;-84
2021/07/18 07:25:13;;;;;;;18.73;12.73;;;21.30;99.90;;;;;;4956181;28;20019;-84
2021/07/18 07:27:39;;;;;;;17.10;12.75;;;21.40;99.90;;;;;;4948726;29;20598;-84
2021/07/18 07:30:07;;;;;;;19.10;13.02;;;21.50;99.90;;;;;;4955261;29;20027;-84
2021/07/18 07:32:33;;;;;;;18.40;12.68;;;21.60;99.90;;;;;;4955322;29;20034;-85
2021/07/18 07:34:59;;;;;;;23.45;13.57;;;21.70;99.90;;;;;;4955451;29;20030;-85
2021/07/18 07:37:25;;;;;;;15.93;12.30;;;21.70;99.90;;;;;;4955017;29;20098;-84
2021/07/18 07:39:54;;;;;;;16.90;11.82;;;21.80;99.90;;;;;;4955589;29;20016;-84
2021/07/18 07:42:21;;;;;;;20.75;12.75;;;21.90;99.90;;;;;;4955338;29;20468;-84
2021/07/18 07:44:48;;;;;;;20.80;12.15;;;21.90;99.90;;;;;;4955356;29;20038;-84
2021/07/18 07:47:15;;;;;;;17.88;12.75;;;22.00;99.90;;;;;;4955000;29;20031;-85
2021/07/18 07:49:42;;;;;;;17.83;11.82;;;22.20;99.90;;;;;;4955506;29;20023;-85
2021/07/18 07:52:10;;;;;;;18.52;11.35;;;22.10;99.90;;;;;;4937755;29;20067;-85
2021/07/18 07:54:35;;;;;;;15.27;10.90;;;22.20;99.90;;;;;;4955177;29;20015;-85
2021/07/18 07:57:01;;;;;;;18.05;11.27;;;22.30;99.90;;;;;;4955887;29;20037;-88
2021/07/18 07:59:27;;;;;;;14.77;10.80;;;22.40;99.90;;;;;;4955296;29;20054;-87
2021/07/18 08:01:53;;;;;;;14.80;10.77;;;22.50;99.90;;;;;;4953865;29;20035;-88
2021/07/18 08:04:19;;;;;;;18.35;11.18;;;22.60;99.90;;;;;;4941868;29;20027;-88
2021/07/18 08:06:45;;;;;;;16.38;10.55;;;22.70;99.90;;;;;;4955205;29;20019;-89
2021/07/18 08:09:11;;;;;;;13.63;10.55;;;22.80;99.90;;;;;;4955785;29;20482;-88
2021/07/18 08:11:37;;;;;;;17.83;10.50;;;22.90;99.90;;;;;;4938258;29;20116;-88
2021/07/18 08:14:03;;;;;;;17.58;10.70;;;23.00;99.90;;;;;;4955818;29;20065;-88
2021/07/18 08:16:28;;;;;;;15.93;10.55;;;23.10;99.90;;;;;;4955195;29;20027;-88
2021/07/18 08:18:54;;;;;;;16.98;10.65;;;23.10;99.90;;;;;;4954631;29;20043;-89
2021/07/18 08:21:20;;;;;;;13.85;10.68;;;23.20;99.90;;;;;;4955045;29;20540;-88
2021/07/18 08:23:49;;;;;;;11.75;9.40;;;23.30;99.90;;;;;;4954965;29;20022;-89
2021/07/18 08:26:16;;;;;;;13.30;9.93;;;23.40;99.90;;;;;;4955099;29;20030;-89
2021/07/18 08:28:42;;;;;;;16.35;10.00;;;23.50;99.90;;;;;;4954209;28;20051;-88
2021/07/18 08:31:08;;;;;;;14.90;10.07;;;23.70;99.90;;;;;;4954860;29;20023;-88
2021/07/18 08:33:34;;;;;;;12.90;9.20;;;23.80;99.90;;;;;;4954582;29;20031;-88
2021/07/18 08:35:59;;;;;;;14.35;9.75;;;23.90;99.90;;;;;;4937367;29;20296;-88
2021/07/18 08:38:25;;;;;;;15.75;9.52;;;24.00;99.90;;;;;;4954457;29;20051;-89
2021/07/18 08:40:54;;;;;;;16.02;9.13;;;24.10;99.90;;;;;;4954206;29;20599;-89
2021/07/18 08:43:20;;;;;;;14.57;9.40;;;24.20;99.90;;;;;;4937723;29;20027;-89
2021/07/18 08:45:47;;;;;;;14.00;9.20;;;24.30;99.90;;;;;;4954132;29;20031;-88
2021/07/18 08:48:13;;;;;;;14.23;9.38;;;24.40;99.90;;;;;;4954273;29;20031;-89
2021/07/18 08:50:41;;;;;;;11.70;8.68;;;24.50;99.90;;;;;;4936743;29;20114;-88
2021/07/18 08:53:07;;;;;;;12.00;8.20;;;24.60;99.90;;;;;;4952730;29;20637;-89
2021/07/18 08:55:33;;;;;;;14.98;8.38;;;24.70;99.90;;;;;;4954211;29;20031;-89
2021/07/18 08:57:59;;;;;;;12.20;8.52;;;24.80;99.90;;;;;;4936805;29;20055;-89
2021/07/18 09:00:25;;;;;;;14.52;8.77;;;24.90;99.90;;;;;;4955183;29;20023;-90
2021/07/18 09:02:51;;;;;;;11.48;8.20;;;25.00;99.90;;;;;;4954147;29;20034;-90
2021/07/18 09:05:17;;;;;;;12.00;8.35;;;25.00;99.90;;;;;;4954619;29;20102;-88
2021/07/18 09:07:51;;;;;;;12.25;7.65;;;25.20;99.90;;;;;;4953847;29;20038;-89
2021/07/18 09:10:26;;;;;;;11.57;8.13;;;25.30;99.90;;;;;;4952432;29;20035;-89
2021/07/18 09:13:09;;;;;;;12.38;8.00;;;25.40;99.90;;;;;;4953686;29;20535;-89
2021/07/18 09:15:48;;;;;;;13.02;8.00;;;25.50;99.90;;;;;;4953968;29;20099;-89
2021/07/18 09:18:21;;;;;;;11.02;8.25;;;25.60;99.90;;;;;;4953513;29;20039;-88
2021/07/18 09:20:53;;;;;;;11.35;8.27;;;25.60;99.90;;;;;;4952652;29;20027;-88
2021/07/18 09:23:25;;;;;;;14.10;8.18;;;25.70;99.90;;;;;;4953656;29;20019;-88
2021/07/18 09:25:51;;;;;;;11.90;8.05;;;25.80;99.90;;;;;;4953849;29;20027;-88
2021/07/18 09:28:19;;;;;;;13.68;8.00;;;25.80;99.90;;;;;;4953355;29;20020;-87
2021/07/18 09:30:46;;;;;;;11.55;7.93;;;25.90;99.90;;;;;;4953254;29;20039;-87
2021/07/18 09:33:28;;;;;;;13.25;8.98;;;26.00;99.90;;;;;;4953347;29;20039;-87
2021/07/18 09:36:15;;;;;;;12.55;7.95;;;26.10;99.90;;;;;;4953575;29;20381;-87
2021/07/18 09:38:41;;;;;;;12.77;8.13;;;26.20;99.90;;;;;;4954520;29;20035;-87
2021/07/18 09:41:07;;;;;;;14.40;8.43;;;26.30;99.90;;;;;;4953672;28;20062;-93
2021/07/18 09:43:33;;;;;;;15.80;8.38;;;26.30;99.90;;;;;;4955396;29;20031;-93
2021/07/18 09:46:08;;;;;;;12.60;8.20;;;26.40;99.90;;;;;;4952071;29;20493;-96
2021/07/18 09:48:40;;;;;;;14.35;8.05;;;26.40;99.90;;;;;;4955954;29;20185;-87
2021/07/18 09:51:16;;;;;;;10.38;7.88;;;26.40;99.90;;;;;;4947095;28;20038;-87
2021/07/18 09:53:43;;;;;;;13.20;8.38;;;26.60;99.90;;;;;;4946434;29;20023;-86
2021/07/18 09:56:11;;;;;;;15.82;8.73;;;26.70;99.90;;;;;;4935171;29;20074;-86
2021/07/18 09:58:39;;;;;;;13.30;8.07;;;26.70;99.90;;;;;;4951787;29;20030;-88
2021/07/18 10:01:08;;;;;;;10.38;7.90;;;26.70;99.90;;;;;;4954550;29;20025;-87
2021/07/18 10:03:34;;;;;;;12.20;8.20;;;26.80;99.90;;;;;;4953464;29;20026;-87
2021/07/18 10:06:20;;;;;;;10.13;8.13;;;26.80;99.90;;;;;;4952113;29;20039;-90
2021/07/18 10:08:56;;;;;;;11.55;8.60;;;27.00;99.90;;;;;;4952369;29;20027;-87
2021/07/18 10:11:24;;;;;;;15.20;9.02;;;27.00;99.90;;;;;;4954091;29;20039;-86
2021/07/18 10:13:51;;;;;;;11.55;7.95;;;27.10;99.90;;;;;;4952188;29;20098;-87
2021/07/18 10:16:19;;;;;;;15.20;9.27;;;27.20;99.90;;;;;;4935979;29;20034;-87
2021/07/18 10:18:46;;;;;;;12.02;8.50;;;27.30;99.90;;;;;;4948097;29;20047;-96
2021/07/18 10:21:14;;;;;;;16.05;8.82;;;27.30;99.90;;;;;;4925456;29;20484;-87
2021/07/18 10:23:43;;;;;;;16.08;8.30;;;27.40;99.90;;;;;;4933618;29;20019;-87
2021/07/18 10:26:16;;;;;;;8.60;7.70;;;27.50;99.90;;;;;;4928137;29;20566;-87
2021/07/18 10:28:42;;;;;;;9.57;8.20;;;27.60;99.90;;;;;;4933143;29;20441;-88
2021/07/18 10:31:12;;;;;;;11.68;7.72;;;27.70;99.90;;;;;;4933447;29;20111;-85
2021/07/18 10:33:39;;;;;;;9.52;7.72;;;27.70;99.90;;;;;;4935117;29;20409;-88
2021/07/18 10:36:05;;;;;;;8.80;7.90;;;27.80;99.90;;;;;;4936860;29;20082;-87
2021/07/18 10:38:35;;;;;;;9.65;7.25;;;27.90;99.90;;;;;;4933215;29;20608;-88
2021/07/18 10:41:02;;;;;;;8.35;7.50;;;27.90;99.90;;;;;;4932015;29;20034;-88
2021/07/18 10:43:44;;;;;;;11.23;7.70;;;27.90;99.90;;;;;;4935466;29;20051;-89
2021/07/18 10:46:13;;;;;;;12.05;7.60;;;28.00;99.90;;;;;;4930745;29;20091;-91
2021/07/18 10:48:52;;;;;;;10.88;7.10;;;28.00;99.90;;;;;;4935848;29;20035;-90
2021/07/18 10:51:33;;;;;;;9.55;6.85;;;28.10;99.90;;;;;;4931671;29;20036;-91
2021/07/18 10:54:17;;;;;;;8.55;7.18;;;28.20;99.90;;;;;;4933942;29;20439;-90
2021/07/18 10:56:44;;;;;;;;;;;28.30;99.90;;;;;;4935094;29;20023;-89
2021/07/18 10:59:37;;;;;;;8.82;6.72;;;28.40;99.90;;;;;;4934425;29;20146;-88
2021/07/18 11:02:17;;;;;;;15.32;7.53;;;28.50;99.90;;;;;;4933525;29;20032;-88
2021/07/18 11:04:50;;;;;;;10.60;7.25;;;28.70;99.90;;;;;;4921876;29;20091;-89
2021/07/18 11:07:26;;;;;;;8.57;6.75;;;28.70;99.90;;;;;;4933736;29;20468;-87
2021/07/18 11:10:14;;;;;;;11.88;7.72;;;28.90;99.90;;;;;;4932311;29;20031;-89
2021/07/18 11:12:49;;;;;;;10.00;7.28;;;29.00;99.90;;;;;;4933843;29;20040;-87
2021/07/18 11:15:34;;;;;;;8.50;6.70;;;29.10;99.90;;;;;;4932403;29;20119;-88
2021/07/18 11:18:15;;;;;;;14.18;6.88;;;29.20;99.90;;;;;;4943360;29;20244;-89
2021/07/18 11:20:47;;;;;;;8.00;6.72;;;29.30;99.90;;;;;;4952499;29;20034;-89
2021/07/18 11:23:31;;;;;;;11.90;7.38;;;29.40;99.90;;;;;;4940358;29;20424;-88
2021/07/18 11:26:08;;;;;;;13.50;6.70;;;29.40;99.90;;;;;;4952243;29;20191;-88
2021/07/18 11:28:38;;;;;;;13.05;7.47;;;29.50;99.90;;;;;;4951578;29;20035;-88
2021/07/18 11:31:10;;;;;;;12.00;6.65;;;29.50;99.50;;;;;;4953584;29;20492;-88
2021/07/18 11:33:44;;;;;;;8.77;6.88;;;29.50;98.70;;;;;;4952646;29;20421;-91
2021/07/18 11:36:12;;;;;;;8.23;6.47;;;29.80;99.40;;;;;;4952274;29;20493;-88
2021/07/18 11:38:38;;;;;;;9.65;7.22;;;29.90;98.20;;;;;;4952495;29;20019;-89
2021/07/18 11:41:20;;;;;;;9.93;6.60;;;29.90;98.80;;;;;;4952604;29;20424;-90
2021/07/18 11:43:54;;;;;;;10.27;6.53;;;30.10;98.70;;;;;;4951489;29;20035;-90
2021/07/18 11:46:21;;;;;;;7.15;6.45;;;30.20;98.00;;;;;;4951027;29;20031;-88
2021/07/18 11:48:53;;;;;;;7.30;6.03;;;30.20;98.00;;;;;;4951788;29;20083;-88
2021/07/18 11:51:24;;;;;;;9.18;5.80;;;30.20;96.70;;;;;;4950927;29;20496;-90
2021/07/18 11:53:54;;;;;;;7.80;5.43;;;30.20;96.20;;;;;;4952828;29;20030;-90
2021/07/18 11:56:25;;;;;;;6.45;5.57;;;30.30;96.40;;;;;;4952396;29;20090;-88
2021/07/18 11:59:01;;;;;;;8.15;5.10;;;30.40;95.50;;;;;;4953142;29;20035;-89
2021/07/18 12:01:28;;;;;;;6.60;5.05;;;30.40;94.60;;;;;;4941755;29;20034;-89
2021/07/18 12:03:55;;;;;;;7.03;5.50;;;30.40;94.30;;;;;;4954520;28;20023;-88
2021/07/18 12:06:23;;;;;;;8.73;5.13;;;30.60;94.30;;;;;;4954917;29;20036;-86
2021/07/18 12:08:49;;;;;;;7.78;5.85;;;30.70;92.90;;;;;;4954981;29;20501;-86
2021/07/18 12:11:25;;;;;;;7.78;5.10;;;30.90;93.20;;;;;;4955111;29;20089;-87
2021/07/18 12:13:53;;;;;;;10.18;7.13;;;31.10;92.90;;;;;;4954860;29;20055;-87
2021/07/18 12:16:20;;;;;;;12.60;10.32;;;31.20;93.80;;;;;;4954912;29;20019;-91
2021/07/18 12:18:51;;;;;;;10.50;5.55;;;31.40;93.90;;;;;;4955130;29;20102;-87
2021/07/18 12:21:32;;;;;;;6.65;4.97;;;31.50;93.50;;;;;;4954953;29;20532;-87
2021/07/18 12:24:15;;;;;;;7.47;5.35;;;31.50;92.60;;;;;;4954793;29;20436;-87
2021/07/18 12:26:57;;;;;;;6.97;4.40;;;31.60;91.90;;;;;;4954822;29;20029;-87
2021/07/18 12:29:28;;;;;;;9.07;5.32;;;31.70;91.10;;;;;;4954445;29;20027;-86
2021/07/18 12:31:54;;;;;;;5.40;4.40;;;31.80;91.70;;;;;;4954383;29;20404;-87
2021/07/18 12:34:27;;;;;;;8.70;4.45;;;31.80;91.30;;;;;;4953342;29;20251;-87